createdAt,value
2018-06-17T00:02:12.433Z,99.90
2018-06-17T00:07:31.295Z,99.90
2018-06-17T00:09:59.527Z,99.90
2018-06-17T00:12:27.762Z,99.90
2018-06-17T00:14:56.054Z,99.90
2018-06-17T00:22:20.581Z,99.90
2018-06-17T00:24:48.811Z,99.90
2018-06-17T00:27:17.084Z,99.90
2018-06-17T00:32:15.307Z,99.90
2018-06-17T00:34:43.587Z,99.90
2018-06-17T00:39:39.862Z,99.90
2018-06-17T00:42:08.105Z,99.90
2018-06-17T00:44:36.365Z,99.90
2018-06-17T00:47:04.613Z,99.90
2018-06-17T00:49:32.878Z,99.90
2018-06-17T00:52:01.138Z,99.90
2018-06-17T00:54:29.406Z,99.90
2018-06-17T00:57:09.053Z,99.90
2018-06-17T00:59:37.298Z,99.90
2018-06-17T01:02:05.682Z,99.90
2018-06-17T01:04:33.947Z,99.90
2018-06-17T01:07:02.182Z,99.90
2018-06-17T01:09:30.444Z,99.90
2018-06-17T01:11:58.676Z,99.90
2018-06-17T01:14:26.983Z,99.90
2018-06-17T01:16:55.285Z,99.90
2018-06-17T01:19:23.503Z,99.90
2018-06-17T01:21:51.770Z,99.90
2018-06-17T01:24:19.984Z,99.90
2018-06-17T01:26:48.273Z,99.90
2018-06-17T01:29:16.515Z,99.90
2018-06-17T01:31:44.817Z,99.90
2018-06-17T01:34:13.165Z,99.90
2018-06-17T01:39:09.674Z,99.90
2018-06-17T01:41:37.921Z,99.90
2018-06-17T01:44:06.320Z,99.90
2018-06-17T01:46:34.745Z,99.90
2018-06-17T01:49:03.012Z,99.90
2018-06-17T01:51:31.247Z,99.90
2018-06-17T01:53:59.515Z,99.90
2018-06-17T01:56:27.758Z,99.90
2018-06-17T01:58:55.995Z,99.90
2018-06-17T02:01:24.235Z,99.90
2018-06-17T02:03:57.853Z,99.90
2018-06-17T02:06:31.605Z,99.90
2018-06-17T02:09:05.067Z,99.90
2018-06-17T02:11:43.902Z,99.90
2018-06-17T02:14:17.383Z,99.90
2018-06-17T02:16:45.627Z,99.90
2018-06-17T02:19:13.855Z,99.90
2018-06-17T02:21:42.109Z,99.90
2018-06-17T02:24:10.373Z,99.90
2018-06-17T02:26:38.623Z,99.90
2018-06-17T02:29:06.889Z,99.90
2018-06-17T02:31:35.141Z,99.90
2018-06-17T02:34:03.567Z,99.90
2018-06-17T02:36:31.821Z,99.90
2018-06-17T02:39:00.126Z,99.90
2018-06-17T02:41:28.531Z,99.90
2018-06-17T02:43:56.783Z,99.90
2018-06-17T02:46:30.388Z,99.90
2018-06-17T02:49:04.055Z,99.90
2018-06-17T02:51:37.681Z,99.90
2018-06-17T02:54:11.430Z,99.90
2018-06-17T02:56:39.735Z,99.90
2018-06-17T02:59:08.293Z,99.90
2018-06-17T03:01:36.536Z,99.90
2018-06-17T03:04:04.901Z,99.90
2018-06-17T03:06:33.185Z,99.90
2018-06-17T03:09:01.434Z,99.90
2018-06-17T03:11:29.699Z,99.90
2018-06-17T03:16:25.941Z,99.90
2018-06-17T03:18:54.175Z,99.90
2018-06-17T03:21:22.420Z,99.90
2018-06-17T03:23:50.674Z,99.90
2018-06-17T03:26:24.385Z,99.90
2018-06-17T03:28:57.851Z,99.90
2018-06-17T03:33:54.083Z,99.90
2018-06-17T03:36:22.363Z,99.90
2018-06-17T03:38:50.570Z,99.90
2018-06-17T03:41:18.835Z,99.90
2018-06-17T03:43:47.166Z,99.90
2018-06-17T03:46:15.439Z,99.90
2018-06-17T03:48:43.697Z,99.90
2018-06-17T03:51:11.955Z,99.90
2018-06-17T03:53:40.203Z,99.90
2018-06-17T03:56:08.493Z,99.90
2018-06-17T03:58:36.767Z,99.90
2018-06-17T04:01:05.022Z,99.90
2018-06-17T04:03:33.281Z,99.90
2018-06-17T04:06:01.533Z,99.90
2018-06-17T04:08:29.761Z,99.90
2018-06-17T04:10:58.083Z,99.90
2018-06-17T04:13:26.345Z,99.90
2018-06-17T04:15:54.665Z,99.90
2018-06-17T04:18:22.906Z,99.90
2018-06-17T04:20:51.158Z,99.90
2018-06-17T04:23:19.419Z,99.90
2018-06-17T04:25:47.711Z,99.90
2018-06-17T04:28:16.012Z,99.90
2018-06-17T04:30:44.244Z,99.90
2018-06-17T04:33:12.479Z,99.90
2018-06-17T04:35:40.706Z,99.90
2018-06-17T04:38:08.985Z,99.90
2018-06-17T04:40:37.242Z,99.90
2018-06-17T04:43:05.487Z,99.90
2018-06-17T04:50:29.727Z,99.90
2018-06-17T04:52:57.993Z,99.90
2018-06-17T04:55:26.475Z,99.90
2018-06-17T04:57:54.737Z,99.90
2018-06-17T05:00:22.984Z,99.90
2018-06-17T05:02:51.261Z,99.90
2018-06-17T05:05:19.779Z,99.90
2018-06-17T05:10:16.054Z,99.90
2018-06-17T05:20:08.296Z,99.90
2018-06-17T05:22:36.533Z,99.90
2018-06-17T05:25:04.787Z,99.90
2018-06-17T05:27:33.025Z,99.90
2018-06-17T05:30:01.278Z,99.90
2018-06-17T05:32:29.526Z,99.90
2018-06-17T05:34:57.749Z,99.90
2018-06-17T05:37:25.966Z,99.90
2018-06-17T05:39:54.248Z,99.90
2018-06-17T05:42:22.483Z,99.90
2018-06-17T05:44:50.721Z,99.90
2018-06-17T05:47:18.961Z,99.90
2018-06-17T05:49:47.217Z,99.90
2018-06-17T05:52:15.469Z,99.90
2018-06-17T05:54:43.683Z,99.90
2018-06-17T05:57:11.930Z,99.90
2018-06-17T05:59:40.177Z,99.90
2018-06-17T06:02:08.411Z,99.90
2018-06-17T06:04:36.649Z,99.90
2018-06-17T06:07:04.941Z,99.90
2018-06-17T06:09:33.171Z,99.90
2018-06-17T06:12:01.470Z,99.90
2018-06-17T06:14:29.689Z,99.90
2018-06-17T06:16:57.950Z,99.90
2018-06-17T06:19:26.206Z,99.90
2018-06-17T06:21:54.563Z,99.90
2018-06-17T06:24:22.821Z,99.90
2018-06-17T06:26:51.069Z,99.90
2018-06-17T06:29:19.324Z,99.90
2018-06-17T06:31:47.597Z,99.90
2018-06-17T06:34:15.826Z,99.90
2018-06-17T06:36:44.056Z,99.90
2018-06-17T06:39:12.541Z,99.90
2018-06-17T06:41:40.918Z,99.90
2018-06-17T06:44:09.157Z,99.90
2018-06-17T06:46:37.445Z,99.90
2018-06-17T06:49:05.699Z,99.90
2018-06-17T06:51:33.983Z,99.90
2018-06-17T06:54:02.306Z,99.90
2018-06-17T06:56:30.551Z,99.90
2018-06-17T06:58:58.794Z,99.90
2018-06-17T07:01:38.465Z,99.90
2018-06-17T07:04:18.136Z,99.90
2018-06-17T07:06:57.802Z,99.90
2018-06-17T07:09:39.439Z,99.90
2018-06-17T07:12:07.732Z,99.90
2018-06-17T07:14:35.949Z,99.90
2018-06-17T07:17:15.614Z,99.90
2018-06-17T07:22:11.830Z,99.90
2018-06-17T07:24:40.275Z,99.90
2018-06-17T07:27:19.812Z,99.90
2018-06-17T07:29:48.433Z,99.90
2018-06-17T07:34:45.138Z,99.90
2018-06-17T07:37:13.370Z,99.90
2018-06-17T07:40:19.493Z,99.90
2018-06-17T07:42:49.206Z,99.90
2018-06-17T07:45:17.492Z,99.90
2018-06-17T07:47:45.771Z,99.90
2018-06-17T07:50:26.858Z,99.90
2018-06-17T07:53:06.569Z,99.90
2018-06-17T07:55:34.868Z,99.90
2018-06-17T07:58:03.093Z,99.90
2018-06-17T08:00:31.701Z,99.90
2018-06-17T08:05:28.010Z,99.90
2018-06-17T08:07:56.222Z,99.90
2018-06-17T08:10:24.438Z,99.90
2018-06-17T08:12:52.681Z,99.90
2018-06-17T08:15:20.988Z,99.90
2018-06-17T08:17:49.223Z,99.90
2018-06-17T08:20:17.510Z,99.90
2018-06-17T08:22:45.685Z,99.90
2018-06-17T08:25:13.937Z,99.90
2018-06-17T08:27:42.153Z,99.90
2018-06-17T08:30:10.359Z,99.90
2018-06-17T08:32:38.599Z,99.90
2018-06-17T08:35:06.819Z,99.90
2018-06-17T08:37:35.041Z,99.90
2018-06-17T08:40:03.264Z,99.90
2018-06-17T08:42:31.510Z,99.90
2018-06-17T08:44:59.740Z,99.90
2018-06-17T08:47:27.978Z,99.90
2018-06-17T08:49:56.221Z,99.90
2018-06-17T08:52:24.458Z,99.90
2018-06-17T08:57:20.641Z,99.90
2018-06-17T08:59:48.905Z,99.90
2018-06-17T09:04:45.186Z,99.90
2018-06-17T09:07:13.442Z,99.90
2018-06-17T09:09:41.674Z,99.90
2018-06-17T09:12:09.925Z,99.90
2018-06-17T09:14:38.157Z,99.90
2018-06-17T09:17:06.438Z,99.90
2018-06-17T09:19:34.667Z,99.90
2018-06-17T09:22:02.911Z,99.90
2018-06-17T09:24:31.159Z,99.90
2018-06-17T09:26:59.475Z,99.90
2018-06-17T09:29:27.730Z,99.90
2018-06-17T09:31:56.116Z,99.90
2018-06-17T09:34:24.315Z,99.90
2018-06-17T09:36:52.576Z,99.90
2018-06-17T09:39:20.818Z,99.90
2018-06-17T09:41:49.162Z,99.90
2018-06-17T09:44:17.415Z,99.90
2018-06-17T09:46:45.643Z,99.90
2018-06-17T09:49:13.878Z,99.90
2018-06-17T09:51:42.103Z,99.90
2018-06-17T09:54:10.322Z,99.90
2018-06-17T09:56:38.550Z,99.90
2018-06-17T09:59:06.800Z,99.90
2018-06-17T10:01:35.062Z,99.90
2018-06-17T10:04:03.283Z,99.90
2018-06-17T10:06:31.485Z,99.90
2018-06-17T10:08:59.763Z,99.90
2018-06-17T10:11:27.961Z,99.90
2018-06-17T10:13:56.184Z,99.90
2018-06-17T10:16:24.441Z,99.90
2018-06-17T10:18:52.769Z,99.90
2018-06-17T10:21:20.982Z,99.90
2018-06-17T10:23:49.238Z,99.90
2018-06-17T10:26:17.485Z,99.90
2018-06-17T10:28:45.682Z,99.90
2018-06-17T10:31:13.907Z,99.90
2018-06-17T10:33:42.141Z,99.90
2018-06-17T10:36:10.406Z,99.90
2018-06-17T10:38:38.654Z,99.90
2018-06-17T10:41:06.943Z,99.90
2018-06-17T10:43:35.224Z,99.90
2018-06-17T10:46:03.390Z,99.90
2018-06-17T10:48:31.617Z,99.90
2018-06-17T10:50:59.824Z,99.90
2018-06-17T10:53:28.074Z,99.90
2018-06-17T10:55:56.429Z,99.90
2018-06-17T10:58:24.581Z,99.90
2018-06-17T11:00:52.894Z,99.90
2018-06-17T11:03:22.416Z,99.90
2018-06-17T11:05:52.929Z,99.90
2018-06-17T11:08:22.317Z,99.90
2018-06-17T11:10:54.000Z,99.90
2018-06-17T11:13:25.078Z,99.90
2018-06-17T11:15:57.385Z,99.90
2018-06-17T11:18:25.654Z,99.90
2018-06-17T11:20:54.218Z,99.90
2018-06-17T11:23:24.474Z,99.90
2018-06-17T11:25:52.701Z,99.90
2018-06-17T11:28:21.024Z,99.90
2018-06-17T11:30:52.258Z,99.90
2018-06-17T11:33:23.466Z,99.90
2018-06-17T11:35:53.357Z,99.90
2018-06-17T11:38:22.981Z,99.90
2018-06-17T11:40:51.740Z,99.90
2018-06-17T11:43:23.806Z,99.90
2018-06-17T11:45:53.502Z,99.90
2018-06-17T11:48:21.704Z,99.90
2018-06-17T11:50:49.969Z,99.90
2018-06-17T11:53:18.442Z,99.90
2018-06-17T11:55:53.118Z,99.90
2018-06-17T11:58:22.677Z,99.90
2018-06-17T12:03:19.030Z,99.90
2018-06-17T12:05:47.559Z,99.90
2018-06-17T12:08:15.823Z,99.90
2018-06-17T12:10:46.573Z,99.90
2018-06-17T12:13:22.361Z,99.90
2018-06-17T12:15:54.228Z,99.90
2018-06-17T12:18:24.054Z,99.90
2018-06-17T12:20:52.995Z,99.90
2018-06-17T12:23:23.420Z,99.90
2018-06-17T12:25:51.638Z,99.90
2018-06-17T12:28:19.868Z,99.90
2018-06-17T12:30:48.138Z,99.90
2018-06-17T12:33:16.508Z,99.90
2018-06-17T12:38:21.321Z,99.90
2018-06-17T12:40:52.140Z,99.90
2018-06-17T12:43:19.897Z,99.90
2018-06-17T12:45:47.662Z,99.90
2018-06-17T12:48:15.423Z,99.90
2018-06-17T12:50:44.083Z,99.90
2018-06-17T12:53:11.770Z,99.90
2018-06-17T12:55:39.326Z,99.90
2018-06-17T13:00:35.530Z,99.90
2018-06-17T13:03:03.977Z,99.90
2018-06-17T13:08:00.335Z,99.90
2018-06-17T13:10:28.569Z,99.90
2018-06-17T13:12:56.855Z,99.90
2018-06-17T13:15:25.104Z,99.90
2018-06-17T13:17:53.498Z,99.90
2018-06-17T13:20:21.747Z,99.90
2018-06-17T13:22:49.269Z,99.90
2018-06-17T13:25:17.506Z,99.90
2018-06-17T13:27:45.754Z,99.90
2018-06-17T13:32:47.680Z,99.90
2018-06-17T13:35:22.187Z,99.90
2018-06-17T13:40:20.411Z,99.90
2018-06-17T13:42:48.811Z,99.90
2018-06-17T13:45:22.089Z,99.90
2018-06-17T13:50:18.797Z,99.90
2018-06-17T13:52:47.041Z,99.90
2018-06-17T13:55:15.286Z,99.90
2018-06-17T13:57:43.610Z,99.90
2018-06-17T14:00:11.860Z,99.90
2018-06-17T14:02:40.185Z,99.90
2018-06-17T14:05:08.422Z,99.90
2018-06-17T14:07:36.739Z,99.90
2018-06-17T14:10:05.496Z,99.90
2018-06-17T14:12:33.711Z,99.90
2018-06-17T14:15:01.961Z,99.90
2018-06-17T14:17:30.234Z,99.90
2018-06-17T14:19:58.455Z,99.90
2018-06-17T14:22:26.706Z,99.90
2018-06-17T14:24:55.010Z,99.90
2018-06-17T14:27:23.266Z,99.70
2018-06-17T14:29:51.574Z,99.20
2018-06-17T14:32:19.861Z,98.70
2018-06-17T14:34:48.086Z,98.50
2018-06-17T14:39:44.262Z,99.00
2018-06-17T14:42:17.217Z,97.90
2018-06-17T14:44:50.023Z,97.70
2018-06-17T14:47:23.055Z,94.30
2018-06-17T14:49:56.177Z,95.30
2018-06-17T14:52:31.927Z,94.10
2018-06-17T14:54:59.466Z,94.80
2018-06-17T14:57:27.949Z,94.10
2018-06-17T14:59:55.589Z,95.30
2018-06-17T15:02:23.179Z,93.60
2018-06-17T15:04:50.757Z,92.90
2018-06-17T15:07:18.298Z,91.00
2018-06-17T15:09:45.834Z,91.30
2018-06-17T15:14:40.654Z,90.00
2018-06-17T15:17:08.195Z,88.40
2018-06-17T15:19:35.710Z,88.10
2018-06-17T15:22:03.254Z,88.50
2018-06-17T15:24:30.785Z,90.00
2018-06-17T15:26:58.358Z,90.30
2018-06-17T15:29:25.985Z,91.10
2018-06-17T15:31:59.074Z,89.30
2018-06-17T15:34:32.006Z,91.70
2018-06-17T15:37:05.094Z,89.80
2018-06-17T15:39:38.016Z,87.70
2018-06-17T15:42:05.567Z,87.80
2018-06-17T15:44:33.104Z,88.20
2018-06-17T15:47:00.664Z,86.90
2018-06-17T15:49:28.180Z,89.50
2018-06-17T15:51:55.712Z,86.40
2018-06-17T15:54:27.907Z,89.50
2018-06-17T15:56:55.914Z,85.60
2018-06-17T15:59:27.194Z,85.50
2018-06-17T16:01:55.116Z,85.60
2018-06-17T16:04:22.632Z,83.30
2018-06-17T16:06:50.443Z,85.60
2018-06-17T16:09:17.976Z,77.60
2018-06-17T16:11:51.011Z,77.40
2018-06-17T16:14:24.004Z,76.10
2018-06-17T16:16:57.121Z,73.70
2018-06-17T16:19:30.037Z,74.00
2018-06-17T16:21:57.567Z,76.90
2018-06-17T16:24:25.083Z,80.10
2018-06-17T16:26:52.604Z,80.80
2018-06-17T16:29:20.142Z,83.20
2018-06-17T16:31:47.673Z,84.80
2018-06-17T16:34:15.218Z,85.60
2018-06-17T16:36:42.758Z,87.00
2018-06-17T16:39:11.921Z,88.80
2018-06-17T16:41:39.701Z,90.20
2018-06-17T16:44:07.879Z,90.80
2018-06-17T16:46:35.534Z,90.80
2018-06-17T16:49:03.146Z,91.40
2018-06-17T16:51:36.145Z,91.20
2018-06-17T16:54:09.169Z,91.50
2018-06-17T16:56:42.135Z,92.40
2018-06-17T16:59:15.260Z,92.80
2018-06-17T17:01:42.823Z,92.80
2018-06-17T17:04:10.362Z,93.50
2018-06-17T17:06:38.614Z,93.40
2018-06-17T17:11:35.907Z,94.10
2018-06-17T17:16:32.210Z,93.50
2018-06-17T17:19:00.685Z,93.20
2018-06-17T17:21:28.949Z,92.60
2018-06-17T17:23:57.228Z,93.20
2018-06-17T17:26:25.488Z,93.20
2018-06-17T17:28:53.736Z,93.60
2018-06-17T17:31:25.554Z,93.50
2018-06-17T17:33:59.318Z,93.20
2018-06-17T17:37:34.034Z,92.80
2018-06-17T17:40:07.802Z,92.80
2018-06-17T17:42:38.201Z,93.20
2018-06-17T17:45:10.610Z,92.80
2018-06-17T17:47:39.015Z,93.40
2018-06-17T17:50:07.255Z,93.00
2018-06-17T17:52:35.551Z,93.70
2018-06-17T17:55:03.777Z,93.50
2018-06-17T17:57:37.940Z,93.50
2018-06-17T18:00:13.006Z,93.60
2018-06-17T18:02:45.694Z,93.60
2018-06-17T18:05:19.183Z,93.60
2018-06-17T18:07:47.519Z,93.80
2018-06-17T18:10:22.536Z,93.90
2018-06-17T18:12:53.030Z,94.00
2018-06-17T18:15:21.807Z,94.20
2018-06-17T18:17:50.221Z,94.70
2018-06-17T18:20:31.384Z,94.70
2018-06-17T18:22:59.891Z,94.40
2018-06-17T18:28:08.484Z,94.80
2018-06-17T18:30:42.209Z,95.00
2018-06-17T18:33:16.077Z,95.50
2018-06-17T18:35:49.791Z,96.10
2018-06-17T18:38:18.138Z,96.10
2018-06-17T18:40:47.131Z,96.00
2018-06-17T18:43:15.381Z,96.10
2018-06-17T18:45:44.278Z,95.90
2018-06-17T18:48:12.595Z,96.30
2018-06-17T18:50:40.880Z,96.60
2018-06-17T18:53:17.914Z,96.90
2018-06-17T18:55:46.238Z,97.40
2018-06-17T18:58:14.581Z,97.40
2018-06-17T19:03:10.891Z,99.90
2018-06-17T19:05:39.280Z,99.90
2018-06-17T19:08:11.791Z,99.90
2018-06-17T19:11:48.346Z,99.90
2018-06-17T19:14:22.094Z,99.90
2018-06-17T19:16:55.692Z,99.90
2018-06-17T19:19:23.993Z,99.90
2018-06-17T19:21:52.300Z,99.90
2018-06-17T19:24:20.589Z,99.90
2018-06-17T19:26:49.304Z,99.90
2018-06-17T19:29:17.643Z,99.90
2018-06-17T19:31:47.449Z,99.90
2018-06-17T19:36:44.204Z,99.90
2018-06-17T19:39:12.743Z,99.90
2018-06-17T19:41:41.073Z,99.90
2018-06-17T19:44:09.391Z,99.90
2018-06-17T19:49:07.137Z,99.90
2018-06-17T19:59:22.033Z,99.90
2018-06-17T20:01:50.335Z,99.90
2018-06-17T20:04:18.643Z,99.90
2018-06-17T20:06:46.909Z,99.90
2018-06-17T20:09:15.214Z,99.90
2018-06-17T20:11:43.528Z,99.90
2018-06-17T20:16:43.425Z,99.90
2018-06-17T20:19:11.763Z,99.90
2018-06-17T20:24:08.154Z,99.90
2018-06-17T20:26:36.456Z,99.90
2018-06-17T20:29:05.033Z,99.90
2018-06-17T20:35:04.592Z,99.90
2018-06-17T20:37:38.338Z,99.90
2018-06-17T20:40:12.775Z,99.90
2018-06-17T20:42:46.489Z,99.90
2018-06-17T20:45:15.164Z,99.90
2018-06-17T20:47:43.517Z,99.90
2018-06-17T20:52:39.857Z,99.90
2018-06-17T20:55:08.141Z,99.90
2018-06-17T20:57:36.445Z,99.90
2018-06-17T21:00:13.584Z,99.90
2018-06-17T21:02:41.998Z,99.90
2018-06-17T21:05:10.356Z,99.90
2018-06-17T21:07:38.690Z,99.90
2018-06-17T21:10:07.403Z,99.90
2018-06-17T21:12:35.698Z,99.90
2018-06-17T21:15:20.208Z,99.90
2018-06-17T21:20:23.370Z,99.90
2018-06-17T21:22:57.089Z,99.90
2018-06-17T21:25:30.813Z,99.90
2018-06-17T21:28:00.649Z,99.90
2018-06-17T21:30:28.971Z,99.90
2018-06-17T21:32:57.242Z,99.90
2018-06-17T21:35:25.610Z,99.90
2018-06-17T21:37:53.975Z,99.90
2018-06-17T21:40:22.285Z,99.90
2018-06-17T21:42:50.577Z,99.90
2018-06-17T21:45:18.869Z,99.90
2018-06-17T21:47:47.159Z,99.90
2018-06-17T21:50:15.492Z,99.90
2018-06-17T21:52:43.733Z,99.90
2018-06-17T21:55:12.082Z,99.90
2018-06-17T21:57:40.377Z,99.90
2018-06-17T22:00:09.756Z,99.90
2018-06-17T22:02:41.889Z,99.90
2018-06-17T22:05:10.155Z,99.90
2018-06-17T22:07:42.690Z,99.90
2018-06-17T22:10:16.412Z,99.90
2018-06-17T22:12:50.153Z,99.90
2018-06-17T22:15:23.962Z,99.90
2018-06-17T22:17:53.117Z,99.90
2018-06-17T22:20:21.637Z,99.90
2018-06-17T22:22:49.905Z,99.90
2018-06-17T22:25:18.824Z,99.90
2018-06-17T22:27:47.155Z,99.90
2018-06-17T22:30:15.423Z,99.90
2018-06-17T22:32:43.723Z,99.90
2018-06-17T22:35:12.485Z,99.90
2018-06-17T22:37:40.800Z,99.90
2018-06-17T22:40:09.135Z,99.90
2018-06-17T22:45:06.165Z,99.90
2018-06-17T22:47:39.748Z,99.90
2018-06-17T22:50:08.580Z,99.90
2018-06-17T22:52:48.712Z,99.90
2018-06-17T22:55:17.033Z,99.90
2018-06-17T22:57:50.522Z,99.90
2018-06-17T23:00:24.380Z,99.90
2018-06-17T23:02:58.076Z,99.90
2018-06-17T23:05:31.815Z,99.90
2018-06-17T23:08:05.508Z,99.90
2018-06-17T23:10:33.812Z,99.90
2018-06-17T23:13:02.112Z,99.90
2018-06-17T23:15:30.428Z,99.90
2018-06-17T23:17:58.720Z,99.90
2018-06-17T23:20:26.974Z,99.90
2018-06-17T23:22:55.464Z,99.90
2018-06-17T23:25:23.821Z,99.90
2018-06-17T23:27:52.122Z,99.90
2018-06-17T23:30:20.643Z,99.90
2018-06-17T23:32:48.939Z,99.90
2018-06-17T23:35:17.204Z,99.90
2018-06-17T23:37:45.470Z,99.90
2018-06-17T23:40:13.741Z,99.90
2018-06-17T23:42:42.055Z,99.90
2018-06-17T23:45:10.364Z,99.90
2018-06-17T23:47:44.246Z,99.90
2018-06-17T23:50:18.006Z,99.90
2018-06-17T23:52:51.728Z,99.90
2018-06-17T23:55:25.588Z,99.90
